Troy, MT

1:25 AM MDT on September 03, 2014 (GMT -0600)
Airport Area | Change Station
CLOSE
Current Station
Personal Weather Station
Location: Libby, MT
Elevation: 2628 ft
Nearby Weather Stations

Elev 2628 ft 48.28 °N, 115.48 °W | Updated 12 minutes ago

Rain
Rain
57.6 °F
Feels Like 57.6 °F
N
0.0
Wind Variable Wind from SSW

Today
High -- | Low -- °F
--% Chance of Precip.
Yesterday
High -- | Low -- °F
Precip. -- in
7:03 AM 8:20 PM
First Quarter, 59% visible
Pressure 29.68 in
Visibility 8.0 miles
Clouds Few 4600 ft
Mostly Cloudy 6000 ft
Overcast 10000 ft
Dew Point 46 °F
Humidity 65%
Rainfall 0.00 in
Snow Depth Not available.
UV 0 out of 12
Pollen 2.80 out of 12
Air Quality Not available.
Flu Activity Not available.
METAR K65S 030715Z AUTO 15003KT 8SM FEW046 BKN060 OVC100 11/10 A2968 RMK AO2

More Conditions Fewer Conditions

Pressure 29.68 in
Visibility 8.0 miles
Clouds Few 4600 ft
Mostly Cloudy 6000 ft
Overcast 10000 ft
Dew Point 46 °F
Humidity 65%
Rainfall 0.00 in
Snow Depth Not available.
UV 0 out of 12
Pollen 2.80 out of 12
Air Quality Not available.
Flu Activity Not available.
METAR K65S 030715Z AUTO 15003KT 8SM FEW046 BKN060 OVC100 11/10 A2968 RMK AO2

More Conditions Fewer Conditions

10-Day Weather Forecast

Almanac

Astronomy

Sep. 03, 2014 Rise Set
Actual Time 7:03 AM MDT 8:20 PM MDT
Civil Twilight 6:31 AM MDT 8:53 PM MDT
Nautical Twilight 5:52 AM MDT 9:32 PM MDT
Astronomical Twilight 5:10 AM MDT 10:13 PM MDT
Moon 4:22 PM MDT 12:46 AM MDT
Length of Visible Light 14h 21m
Length of Day
13h 17m
Tomorrow will be 3m 26s shorter.
First Quarter, 59% of the Moon is Illuminated
Today
First Quarter
Sep 8
Full
Sep 15
Last Quarter
Sep 24
New
Oct 1
First Quarter

Today's Extremes

State Highs State Lows

Community

WunderPhotos

Upload Photos

1,749,891 photos uploaded!

Nearby

Snow Depth

Station Depth Elevation
Poorman Creek 0 in 5100 ft
Garver Creek 1 in 4250 ft
Hawkins Lake 0 in 6450 ft
Hand Creek 0 in 5035 ft
Stahl Peak 0 in 6030 ft

Earthquake Activity

City Distance Mag. Time & Date
Mullan, Idaho 69 miles 2.5 2:01 AM MDT
2014-08-31
Minimum magnitude displayed is 2.5.

Coastal Water Temperatures

Place Temperature
No Stations Reporting

Nearby Weather Stations